sensor_id;sensor_type;location;lat;lon;timestamp;pressure;altitude;pressure_sealevel;temperature;humidity
18323;BME280;9287;49.456;11.064;2023-02-04T00:00:31;99104.28;;;5.90;100.00
18323;BME280;9287;49.456;11.064;2023-02-04T00:03:03;99095.47;;;5.98;100.00
18323;BME280;9287;49.456;11.064;2023-02-04T00:05:30;99106.91;;;5.95;100.00
18323;BME280;9287;49.456;11.064;2023-02-04T00:07:59;99113.38;;;5.99;100.00
18323;BME280;9287;49.456;11.064;2023-02-04T00:10:27;99100.69;;;5.94;100.00
18323;BME280;9287;49.456;11.064;2023-02-04T00:12:55;99107.34;;;6.02;100.00
18323;BME280;9287;49.456;11.064;2023-02-04T00:15:23;99098.13;;;6.03;100.00
18323;BME280;9287;49.456;11.064;2023-02-04T00:17:51;99100.69;;;5.94;100.00
18323;BME280;9287;49.456;11.064;2023-02-04T00:20:19;99103.69;;;5.93;100.00
18323;BME280;9287;49.456;11.064;2023-02-04T00:22:46;99102.53;;;5.99;100.00
18323;BME280;9287;49.456;11.064;2023-02-04T00:25:16;99103.31;;;6.00;100.00
18323;BME280;9287;49.456;11.064;2023-02-04T00:27:44;99111.75;;;5.98;100.00
18323;BME280;9287;49.456;11.064;2023-02-04T00:30:12;99103.84;;;6.02;100.00
18323;BME280;9287;49.456;11.064;2023-02-04T00:32:40;99119.59;;;6.00;100.00
18323;BME280;9287;49.456;11.064;2023-02-04T00:35:08;99122.53;;;6.03;100.00
18323;BME280;9287;49.456;11.064;2023-02-04T00:37:36;99125.25;;;6.03;100.00
18323;BME280;9287;49.456;11.064;2023-02-04T00:40:04;99126.41;;;5.97;100.00
18323;BME280;9287;49.456;11.064;2023-02-04T00:42:33;99116.06;;;5.99;100.00
18323;BME280;9287;49.456;11.064;2023-02-04T00:45:01;99123.63;;;6.02;100.00
18323;BME280;9287;49.456;11.064;2023-02-04T00:47:29;99122.97;;;5.91;100.00
18323;BME280;9287;49.456;11.064;2023-02-04T00:49:56;99126.91;;;5.99;100.00
18323;BME280;9287;49.456;11.064;2023-02-04T00:52:24;99137.25;;;5.97;100.00
18323;BME280;9287;49.456;11.064;2023-02-04T00:54:52;99123.75;;;5.92;100.00
18323;BME280;9287;49.456;11.064;2023-02-04T00:57:20;99131.81;;;5.97;100.00
18323;BME280;9287;49.456;11.064;2023-02-04T00:59:49;99124.34;;;5.89;100.00
18323;BME280;9287;49.456;11.064;2023-02-04T01:02:16;99124.78;;;5.96;100.00
18323;BME280;9287;49.456;11.064;2023-02-04T01:04:44;99130.78;;;5.93;100.00
18323;BME280;9287;49.456;11.064;2023-02-04T01:07:12;99134.03;;;5.95;100.00
18323;BME280;9287;49.456;11.064;2023-02-04T01:09:39;99135.78;;;5.86;100.00
18323;BME280;9287;49.456;11.064;2023-02-04T01:12:07;99139.56;;;5.85;100.00
18323;BME280;9287;49.456;11.064;2023-02-04T01:14:35;99146.25;;;5.92;100.00
18323;BME280;9287;49.456;11.064;2023-02-04T01:17:04;99159.13;;;5.82;100.00
18323;BME280;9287;49.456;11.064;2023-02-04T01:19:32;99157.00;;;5.79;100.00
18323;BME280;9287;49.456;11.064;2023-02-04T01:21:59;99157.69;;;5.89;100.00
18323;BME280;9287;49.456;11.064;2023-02-04T01:24:27;99153.94;;;5.85;100.00
18323;BME280;9287;49.456;11.064;2023-02-04T01:26:55;99157.47;;;5.86;100.00
18323;BME280;9287;49.456;11.064;2023-02-04T01:29:22;99162.06;;;5.85;100.00
18323;BME280;9287;49.456;11.064;2023-02-04T01:31:50;99169.44;;;5.80;100.00
18323;BME280;9287;49.456;11.064;2023-02-04T01:34:19;99174.88;;;5.80;100.00
18323;BME280;9287;49.456;11.064;2023-02-04T01:36:47;99169.97;;;5.82;100.00
18323;BME280;9287;49.456;11.064;2023-02-04T01:39:15;99170.50;;;5.84;100.00
18323;BME280;9287;49.456;11.064;2023-02-04T01:41:42;99182.56;;;5.73;100.00
18323;BME280;9287;49.456;11.064;2023-02-04T01:44:10;99184.16;;;5.74;100.00
18323;BME280;9287;49.456;11.064;2023-02-04T01:46:38;99183.31;;;5.78;100.00
18323;BME280;9287;49.456;11.064;2023-02-04T01:49:06;99184.69;;;5.76;100.00
18323;BME280;9287;49.456;11.064;2023-02-04T01:51:35;99190.03;;;5.81;100.00
18323;BME280;9287;49.456;11.064;2023-02-04T01:54:03;99191.28;;;5.70;100.00
18323;BME280;9287;49.456;11.064;2023-02-04T01:56:32;99192.81;;;5.76;100.00
18323;BME280;9287;49.456;11.064;2023-02-04T01:59:00;99203.13;;;5.74;100.00
18323;BME280;9287;49.456;11.064;2023-02-04T02:01:36;99203.22;;;5.69;100.00
18323;BME280;9287;49.456;11.064;2023-02-04T02:04:04;99200.13;;;5.75;100.00
18323;BME280;9287;49.456;11.064;2023-02-04T02:06:32;99202.56;;;5.77;100.00
18323;BME280;9287;49.456;11.064;2023-02-04T02:09:02;99210.16;;;5.75;100.00
18323;BME280;9287;49.456;11.064;2023-02-04T02:11:30;99206.94;;;5.73;100.00
18323;BME280;9287;49.456;11.064;2023-02-04T02:13:58;99200.94;;;5.76;100.00
18323;BME280;9287;49.456;11.064;2023-02-04T02:16:26;99208.56;;;5.74;100.00
18323;BME280;9287;49.456;11.064;2023-02-04T02:18:54;99207.31;;;5.66;98.96
18323;BME280;9287;49.456;11.064;2023-02-04T02:21:29;99219.41;;;5.74;98.94
18323;BME280;9287;49.456;11.064;2023-02-04T02:24:01;99221.00;;;5.75;99.15
18323;BME280;9287;49.456;11.064;2023-02-04T02:26:42;99223.44;;;5.76;100.00
18323;BME280;9287;49.456;11.064;2023-02-04T02:29:10;99225.44;;;5.71;100.00
18323;BME280;9287;49.456;11.064;2023-02-04T02:31:38;99224.00;;;5.73;100.00
18323;BME280;9287;49.456;11.064;2023-02-04T02:34:06;99223.19;;;5.73;100.00
18323;BME280;9287;49.456;11.064;2023-02-04T02:36:33;99229.81;;;5.67;100.00
18323;BME280;9287;49.456;11.064;2023-02-04T02:39:03;99215.22;;;5.63;100.00
18323;BME280;9287;49.456;11.064;2023-02-04T02:41:30;99219.66;;;5.53;100.00
18323;BME280;9287;49.456;11.064;2023-02-04T02:43:59;99217.44;;;5.55;100.00
18323;BME280;9287;49.456;11.064;2023-02-04T02:46:27;99230.03;;;5.46;100.00
18323;BME280;9287;49.456;11.064;2023-02-04T02:48:55;99229.47;;;5.49;100.00
18323;BME280;9287;49.456;11.064;2023-02-04T02:51:22;99235.94;;;5.53;100.00
18323;BME280;9287;49.456;11.064;2023-02-04T02:53:51;99230.00;;;5.51;100.00
18323;BME280;9287;49.456;11.064;2023-02-04T02:56:20;99232.75;;;5.46;100.00
18323;BME280;9287;49.456;11.064;2023-02-04T02:58:48;99247.66;;;5.44;100.00
18323;BME280;9287;49.456;11.064;2023-02-04T03:01:16;99248.47;;;5.44;100.00
18323;BME280;9287;49.456;11.064;2023-02-04T03:03:46;99249.53;;;5.48;100.00
18323;BME280;9287;49.456;11.064;2023-02-04T03:06:16;99271.53;;;5.42;100.00
18323;BME280;9287;49.456;11.064;2023-02-04T03:08:47;99275.31;;;5.41;100.00
18323;BME280;9287;49.456;11.064;2023-02-04T03:11:16;99274.53;;;5.40;100.00
18323;BME280;9287;49.456;11.064;2023-02-04T03:13:45;99274.53;;;5.40;100.00
18323;BME280;9287;49.456;11.064;2023-02-04T03:16:13;99275.91;;;5.38;100.00
18323;BME280;9287;49.456;11.064;2023-02-04T03:18:41;99287.53;;;5.38;100.00
18323;BME280;9287;49.456;11.064;2023-02-04T03:21:10;99285.88;;;5.42;100.00
18323;BME280;9287;49.456;11.064;2023-02-04T03:23:38;99289.28;;;5.29;100.00
18323;BME280;9287;49.456;11.064;2023-02-04T03:26:06;99304.50;;;5.20;100.00
18323;BME280;9287;49.456;11.064;2023-02-04T03:28:38;99309.63;;;5.21;100.00
18323;BME280;9287;49.456;11.064;2023-02-04T03:31:07;99318.03;;;5.20;100.00
18323;BME280;9287;49.456;11.064;2023-02-04T03:33:35;99316.91;;;5.26;100.00
18323;BME280;9287;49.456;11.064;2023-02-04T03:36:03;99326.94;;;5.25;100.00
18323;BME280;9287;49.456;11.064;2023-02-04T03:38:31;99327.09;;;5.39;100.00
18323;BME280;9287;49.456;11.064;2023-02-04T03:40:59;99329.06;;;5.34;100.00
18323;BME280;9287;49.456;11.064;2023-02-04T03:43:27;99351.03;;;5.27;100.00
18323;BME280;9287;49.456;11.064;2023-02-04T03:45:55;99344.00;;;5.26;100.00
18323;BME280;9287;49.456;11.064;2023-02-04T03:48:25;99345.03;;;5.35;100.00
18323;BME280;9287;49.456;11.064;2023-02-04T03:50:52;99357.50;;;5.31;100.00
18323;BME280;9287;49.456;11.064;2023-02-04T03:53:20;99339.63;;;5.30;100.00
18323;BME280;9287;49.456;11.064;2023-02-04T03:55:48;99354.28;;;5.29;100.00
18323;BME280;9287;49.456;11.064;2023-02-04T03:58:15;99353.78;;;5.22;100.00
18323;BME280;9287;49.456;11.064;2023-02-04T04:00:43;99364.59;;;5.22;100.00
18323;BME280;9287;49.456;11.064;2023-02-04T04:03:11;99367.28;;;5.27;100.00
18323;BME280;9287;49.456;11.064;2023-02-04T04:05:40;99376.03;;;5.19;100.00
18323;BME280;9287;49.456;11.064;2023-02-04T04:08:08;99370.03;;;5.22;100.00
18323;BME280;9287;49.456;11.064;2023-02-04T04:10:35;99369.47;;;5.25;100.00
18323;BME280;9287;49.456;11.064;2023-02-04T04:13:03;99363.00;;;5.21;100.00
18323;BME280;9287;49.456;11.064;2023-02-04T04:15:31;99369.44;;;5.30;100.00
18323;BME280;9287;49.456;11.064;2023-02-04T04:17:59;99374.31;;;5.28;100.00
18323;BME280;9287;49.456;11.064;2023-02-04T04:20:27;99374.41;;;5.18;100.00
18323;BME280;9287;49.456;11.064;2023-02-04T04:22:56;99371.75;;;5.13;100.00
18323;BME280;9287;49.456;11.064;2023-02-04T04:25:24;99378.28;;;5.07;100.00
18323;BME280;9287;49.456;11.064;2023-02-04T04:27:52;99380.22;;;5.01;100.00
18323;BME280;9287;49.456;11.064;2023-02-04T04:30:20;99382.63;;;5.03;100.00
18323;BME280;9287;49.456;11.064;2023-02-04T04:32:47;99388.63;;;5.00;100.00
18323;BME280;9287;49.456;11.064;2023-02-04T04:35:15;99392.47;;;4.88;100.00
18323;BME280;9287;49.456;11.064;2023-02-04T04:37:43;99395.72;;;4.90;100.00
18323;BME280;9287;49.456;11.064;2023-02-04T04:40:12;99404.38;;;4.93;100.00
18323;BME280;9287;49.456;11.064;2023-02-04T04:42:40;99418.69;;;4.98;100.00
18323;BME280;9287;49.456;11.064;2023-02-04T04:45:09;99415.13;;;5.03;100.00
18323;BME280;9287;49.456;11.064;2023-02-04T04:47:37;99427.09;;;4.97;100.00
18323;BME280;9287;49.456;11.064;2023-02-04T04:50:05;99425.94;;;5.03;100.00
18323;BME280;9287;49.456;11.064;2023-02-04T04:52:33;99437.38;;;5.00;100.00
18323;BME280;9287;49.456;11.064;2023-02-04T04:55:01;99427.91;;;4.97;100.00
18323;BME280;9287;49.456;11.064;2023-02-04T04:57:30;99443.31;;;4.97;100.00
18323;BME280;9287;49.456;11.064;2023-02-04T04:59:58;99442.19;;;5.03;100.00
18323;BME280;9287;49.456;11.064;2023-02-04T05:02:25;99442.25;;;4.93;100.00
18323;BME280;9287;49.456;11.064;2023-02-04T05:04:53;99459.06;;;4.89;100.00
18323;BME280;9287;49.456;11.064;2023-02-04T05:07:21;99468.22;;;4.99;100.00
18323;BME280;9287;49.456;11.064;2023-02-04T05:09:48;99472.31;;;4.91;100.00
18323;BME280;9287;49.456;11.064;2023-02-04T05:12:16;99465.28;;;4.90;100.00
18323;BME280;9287;49.456;11.064;2023-02-04T05:14:45;99477.19;;;4.89;100.00
18323;BME280;9287;49.456;11.064;2023-02-04T05:17:13;99473.13;;;4.92;100.00
18323;BME280;9287;49.456;11.064;2023-02-04T05:19:40;99478.53;;;4.92;100.00
18323;BME280;9287;49.456;11.064;2023-02-04T05:22:08;99478.06;;;4.84;100.00
18323;BME280;9287;49.456;11.064;2023-02-04T05:24:36;99478.56;;;4.86;100.00
18323;BME280;9287;49.456;11.064;2023-02-04T05:27:04;99478.59;;;4.81;100.00
18323;BME280;9287;49.456;11.064;2023-02-04T05:29:31;99488.88;;;4.84;100.00
18323;BME280;9287;49.456;11.064;2023-02-04T05:32:00;99489.44;;;4.81;100.00
18323;BME280;9287;49.456;11.064;2023-02-04T05:34:28;99487.22;;;4.88;100.00
18323;BME280;9287;49.456;11.064;2023-02-04T05:36:56;99494.84;;;4.81;100.00
18323;BME280;9287;49.456;11.064;2023-02-04T05:39:24;99497.00;;;4.79;100.00
18323;BME280;9287;49.456;11.064;2023-02-04T05:41:51;99505.69;;;4.76;100.00
18323;BME280;9287;49.456;11.064;2023-02-04T05:44:19;99504.59;;;4.77;100.00
18323;BME280;9287;49.456;11.064;2023-02-04T05:46:47;99513.25;;;4.74;100.00
18323;BME280;9287;49.456;11.064;2023-02-04T05:49:16;99514.91;;;4.70;100.00
18323;BME280;9287;49.456;11.064;2023-02-04T05:51:44;99525.50;;;4.67;100.00
18323;BME280;9287;49.456;11.064;2023-02-04T05:54:11;99529.50;;;4.69;100.00
18323;BME280;9287;49.456;11.064;2023-02-04T05:56:45;99538.22;;;4.61;100.00
18323;BME280;9287;49.456;11.064;2023-02-04T05:59:12;99539.88;;;4.47;100.00
18323;BME280;9287;49.456;11.064;2023-02-04T06:01:40;99548.53;;;4.44;100.00
18323;BME280;9287;49.456;11.064;2023-02-04T06:04:08;99553.94;;;4.39;100.00
18323;BME280;9287;49.456;11.064;2023-02-04T06:06:37;99552.34;;;4.23;100.00
18323;BME280;9287;49.456;11.064;2023-02-04T06:09:05;99562.09;;;4.18;100.00
18323;BME280;9287;49.456;11.064;2023-02-04T06:11:33;99569.13;;;4.19;100.00
18323;BME280;9287;49.456;11.064;2023-02-04T06:14:01;99576.44;;;4.14;100.00
18323;BME280;9287;49.456;11.064;2023-02-04T06:16:28;99576.16;;;4.05;100.00
18323;BME280;9287;49.456;11.064;2023-02-04T06:18:56;99576.69;;;4.07;100.00
18323;BME280;9287;49.456;11.064;2023-02-04T06:21:25;99579.41;;;4.02;100.00
18323;BME280;9287;49.456;11.064;2023-02-04T06:23:54;99584.25;;;4.00;100.00
18323;BME280;9287;49.456;11.064;2023-02-04T06:26:22;99591.56;;;4.00;100.00
18323;BME280;9287;49.456;11.064;2023-02-04T06:28:50;99597.25;;;4.03;100.00
18323;BME280;9287;49.456;11.064;2023-02-04T06:31:18;99605.38;;;4.08;100.00
18323;BME280;9287;49.456;11.064;2023-02-04T06:33:45;99615.09;;;4.14;100.00
18323;BME280;9287;49.456;11.064;2023-02-04T06:36:13;99618.59;;;4.10;100.00
18323;BME280;9287;49.456;11.064;2023-02-04T06:38:41;99636.69;;;3.99;100.00
18323;BME280;9287;49.456;11.064;2023-02-04T06:41:10;99646.91;;;3.67;100.00
18323;BME280;9287;49.456;11.064;2023-02-04T06:43:37;99655.78;;;3.52;100.00
18323;BME280;9287;49.456;11.064;2023-02-04T06:46:05;99668.94;;;3.33;100.00
18323;BME280;9287;49.456;11.064;2023-02-04T06:48:33;99675.66;;;3.21;100.00
18323;BME280;9287;49.456;11.064;2023-02-04T06:51:01;99679.09;;;3.06;100.00
18323;BME280;9287;49.456;11.064;2023-02-04T06:53:28;99682.22;;;2.88;100.00
18323;BME280;9287;49.456;11.064;2023-02-04T06:55:56;99684.59;;;2.79;100.00
18323;BME280;9287;49.456;11.064;2023-02-04T06:58:25;99696.66;;;2.66;100.00
18323;BME280;9287;49.456;11.064;2023-02-04T07:00:53;99702.38;;;2.75;100.00
18323;BME280;9287;49.456;11.064;2023-02-04T07:03:21;99708.59;;;2.80;100.00
18323;BME280;9287;49.456;11.064;2023-02-04T07:05:48;99709.72;;;2.85;100.00
18323;BME280;9287;49.456;11.064;2023-02-04T07:08:16;99701.63;;;2.85;100.00
18323;BME280;9287;49.456;11.064;2023-02-04T07:10:44;99705.44;;;2.89;100.00
18323;BME280;9287;49.456;11.064;2023-02-04T07:13:12;99714.91;;;2.91;100.00
18323;BME280;9287;49.456;11.064;2023-02-04T07:15:41;99705.13;;;2.85;100.00
18323;BME280;9287;49.456;11.064;2023-02-04T07:18:08;99710.31;;;2.92;100.00
18323;BME280;9287;49.456;11.064;2023-02-04T07:20:36;99723.78;;;2.87;100.00
18323;BME280;9287;49.456;11.064;2023-02-04T07:23:04;99721.03;;;2.82;100.00
18323;BME280;9287;49.456;11.064;2023-02-04T07:25:32;99731.34;;;2.90;100.00
18323;BME280;9287;49.456;11.064;2023-02-04T07:27:59;99729.22;;;2.97;100.00
18323;BME280;9287;49.456;11.064;2023-02-04T07:30:29;99737.56;;;2.95;100.00
18323;BME280;9287;49.456;11.064;2023-02-04T07:32:58;99744.38;;;3.03;100.00
18323;BME280;9287;49.456;11.064;2023-02-04T07:35:26;99733.53;;;2.98;100.00
18323;BME280;9287;49.456;11.064;2023-02-04T07:37:54;99742.75;;;3.02;100.00
18323;BME280;9287;49.456;11.064;2023-02-04T07:40:21;99740.41;;;3.10;100.00
18323;BME280;9287;49.456;11.064;2023-02-04T07:42:49;99752.00;;;3.11;100.00
18323;BME280;9287;49.456;11.064;2023-02-04T07:45:17;99761.66;;;3.02;100.00
18323;BME280;9287;49.456;11.064;2023-02-04T07:47:45;99768.63;;;2.98;100.00
18323;BME280;9287;49.456;11.064;2023-02-04T07:50:14;99765.50;;;3.16;100.00
18323;BME280;9287;49.456;11.064;2023-02-04T07:52:42;99783.34;;;3.17;100.00
18323;BME280;9287;49.456;11.064;2023-02-04T07:55:10;99790.47;;;3.33;100.00
18323;BME280;9287;49.456;11.064;2023-02-04T07:57:38;99790.00;;;3.41;100.00
18323;BME280;9287;49.456;11.064;2023-02-04T08:00:09;99790.03;;;3.52;100.00
18323;BME280;9287;49.456;11.064;2023-02-04T08:02:38;99791.44;;;3.64;100.00
18323;BME280;9287;49.456;11.064;2023-02-04T08:05:07;99790.66;;;3.69;100.00
18323;BME280;9287;49.456;11.064;2023-02-04T08:07:36;99787.47;;;3.77;100.00
18323;BME280;9287;49.456;11.064;2023-02-04T08:10:04;99789.41;;;3.92;100.00
18323;BME280;9287;49.456;11.064;2023-02-04T08:12:33;99803.22;;;4.00;100.00
18323;BME280;9287;49.456;11.064;2023-02-04T08:15:00;99804.91;;;4.11;100.00
18323;BME280;9287;49.456;11.064;2023-02-04T08:17:28;99813.56;;;4.24;100.00
18323;BME280;9287;49.456;11.064;2023-02-04T08:19:56;99815.50;;;4.28;100.00
18323;BME280;9287;49.456;11.064;2023-02-04T08:22:24;99818.97;;;4.24;100.00
18323;BME280;9287;49.456;11.064;2023-02-04T08:24:53;99827.66;;;4.31;100.00
18323;BME280;9287;49.456;11.064;2023-02-04T08:27:20;99840.59;;;4.18;100.00
18323;BME280;9287;49.456;11.064;2023-02-04T08:29:48;99841.66;;;4.17;100.00
18323;BME280;9287;49.456;11.064;2023-02-04T08:32:16;99846.91;;;3.77;100.00
18323;BME280;9287;49.456;11.064;2023-02-04T08:34:44;99852.06;;;3.78;100.00
18323;BME280;9287;49.456;11.064;2023-02-04T08:37:13;99847.53;;;3.99;100.00
18323;BME280;9287;49.456;11.064;2023-02-04T08:39:41;99854.06;;;3.98;100.00
18323;BME280;9287;49.456;11.064;2023-02-04T08:42:12;99848.16;;;4.11;100.00
18323;BME280;9287;49.456;11.064;2023-02-04T08:44:40;99860.94;;;4.36;100.00
18323;BME280;9287;49.456;11.064;2023-02-04T08:47:08;99858.47;;;4.25;100.00
18323;BME280;9287;49.456;11.064;2023-02-04T08:49:36;99869.06;;;4.31;100.00
18323;BME280;9287;49.456;11.064;2023-02-04T08:52:04;99868.97;;;4.11;100.00
18323;BME280;9287;49.456;11.064;2023-02-04T08:54:33;99872.75;;;4.10;100.00
18323;BME280;9287;49.456;11.064;2023-02-04T08:57:01;99878.91;;;4.00;100.00
18323;BME280;9287;49.456;11.064;2023-02-04T08:59:30;99877.19;;;3.84;100.00
18323;BME280;9287;49.456;11.064;2023-02-04T09:01:58;99885.69;;;3.98;100.00
18323;BME280;9287;49.456;11.064;2023-02-04T09:04:26;99885.31;;;3.84;100.00
18323;BME280;9287;49.456;11.064;2023-02-04T09:06:54;99878.91;;;3.95;100.00
18323;BME280;9287;49.456;11.064;2023-02-04T09:09:22;99892.28;;;4.27;100.00
18323;BME280;9287;49.456;11.064;2023-02-04T09:11:51;99903.28;;;4.05;100.00
18323;BME280;9287;49.456;11.064;2023-02-04T09:14:19;99902.72;;;3.98;100.00
18323;BME280;9287;49.456;11.064;2023-02-04T09:16:48;99903.84;;;4.12;100.00
18323;BME280;9287;49.456;11.064;2023-02-04T09:19:16;99912.44;;;4.04;100.00
18323;BME280;9287;49.456;11.064;2023-02-04T09:21:49;99907.56;;;4.01;99.11
18323;BME280;9287;49.456;11.064;2023-02-04T09:24:17;99910.34;;;4.16;98.47
18323;BME280;9287;49.456;11.064;2023-02-04T09:26:44;99914.78;;;3.85;98.54
18323;BME280;9287;49.456;11.064;2023-02-04T09:29:12;99922.22;;;4.10;100.00
18323;BME280;9287;49.456;11.064;2023-02-04T09:31:40;99922.53;;;4.19;97.09
18323;BME280;9287;49.456;11.064;2023-02-04T09:34:09;99916.75;;;3.95;97.74
18323;BME280;9287;49.456;11.064;2023-02-04T09:36:37;99912.63;;;4.40;98.97
18323;BME280;9287;49.456;11.064;2023-02-04T09:39:06;99921.84;;;4.54;93.64
18323;BME280;9287;49.456;11.064;2023-02-04T09:41:35;99932.06;;;4.37;92.96
18323;BME280;9287;49.456;11.064;2023-02-04T09:44:08;99942.56;;;4.23;94.56
18323;BME280;9287;49.456;11.064;2023-02-04T09:46:38;99949.78;;;4.07;95.87
18323;BME280;9287;49.456;11.064;2023-02-04T09:49:09;99955.25;;;4.17;98.15
18323;BME280;9287;49.456;11.064;2023-02-04T09:51:37;99955.25;;;4.17;95.76
18323;BME280;9287;49.456;11.064;2023-02-04T09:54:07;99960.47;;;4.29;92.76
18323;BME280;9287;49.456;11.064;2023-02-04T09:56:38;99970.00;;;4.00;92.75
18323;BME280;9287;49.456;11.064;2023-02-04T09:59:10;99968.31;;;4.31;97.07
18323;BME280;9287;49.456;11.064;2023-02-04T10:01:38;99969.50;;;4.50;95.66
18323;BME280;9287;49.456;11.064;2023-02-04T10:04:10;99968.78;;;4.23;91.69
18323;BME280;9287;49.456;11.064;2023-02-04T10:06:39;99976.88;;;4.17;92.86
18323;BME280;9287;49.456;11.064;2023-02-04T10:09:10;99982.19;;;4.02;96.28
18323;BME280;9287;49.456;11.064;2023-02-04T10:11:39;99984.22;;;3.85;95.39
18323;BME280;9287;49.456;11.064;2023-02-04T10:14:12;99980.97;;;3.83;93.31
18323;BME280;9287;49.456;11.064;2023-02-04T10:16:41;99973.00;;;3.98;95.11
18323;BME280;9287;49.456;11.064;2023-02-04T10:19:13;99984.31;;;3.95;94.60
18323;BME280;9287;49.456;11.064;2023-02-04T10:21:43;99985.41;;;3.99;92.12
18323;BME280;9287;49.456;11.064;2023-02-04T10:24:12;99990.19;;;3.87;90.66
18323;BME280;9287;49.456;11.064;2023-02-04T10:26:41;99984.41;;;4.10;92.77
18323;BME280;9287;49.456;11.064;2023-02-04T10:29:13;99984.50;;;4.26;92.48
18323;BME280;9287;49.456;11.064;2023-02-04T10:31:43;99979.69;;;4.33;89.70
18323;BME280;9287;49.456;11.064;2023-02-04T10:34:14;99983.50;;;4.42;90.50
18323;BME280;9287;49.456;11.064;2023-02-04T10:36:46;99976.06;;;4.74;90.67
18323;BME280;9287;49.456;11.064;2023-02-04T10:39:15;99984.19;;;4.79;82.07
18323;BME280;9287;49.456;11.064;2023-02-04T10:41:45;99985.22;;;4.68;78.41
18323;BME280;9287;49.456;11.064;2023-02-04T10:44:17;99977.94;;;4.74;77.30
18323;BME280;9287;49.456;11.064;2023-02-04T10:46:45;99983.13;;;4.85;78.01
18323;BME280;9287;49.456;11.064;2023-02-04T10:49:18;99972.41;;;5.36;76.29
18323;BME280;9287;49.456;11.064;2023-02-04T10:51:47;99972.41;;;5.36;74.40
18323;BME280;9287;49.456;11.064;2023-02-04T10:54:16;99973.22;;;5.77;71.26
18323;BME280;9287;49.456;11.064;2023-02-04T10:56:56;99966.72;;;6.78;69.38
18323;BME280;9287;49.456;11.064;2023-02-04T10:59:25;99974.59;;;7.63;59.85
18323;BME280;9287;49.456;11.064;2023-02-04T11:01:54;99978.91;;;7.30;60.26
18323;BME280;9287;49.456;11.064;2023-02-04T11:04:24;99965.81;;;6.39;61.59
18323;BME280;9287;49.456;11.064;2023-02-04T11:06:54;99977.84;;;5.92;66.37
18323;BME280;9287;49.456;11.064;2023-02-04T11:09:21;99984.06;;;5.87;68.55
18323;BME280;9287;49.456;11.064;2023-02-04T11:11:50;99981.06;;;5.38;69.39
18323;BME280;9287;49.456;11.064;2023-02-04T11:14:26;99982.69;;;5.29;73.69
18323;BME280;9287;49.456;11.064;2023-02-04T11:16:55;99993.19;;;5.05;75.12
18323;BME280;9287;49.456;11.064;2023-02-04T11:19:33;99991.78;;;4.87;77.95
18323;BME280;9287;49.456;11.064;2023-02-04T11:22:07;99986.44;;;5.08;78.72
18323;BME280;9287;49.456;11.064;2023-02-04T11:24:46;99981.06;;;5.18;75.42
18323;BME280;9287;49.456;11.064;2023-02-04T11:27:20;99991.63;;;5.24;75.79
18323;BME280;9287;49.456;11.064;2023-02-04T11:29:48;99988.91;;;5.14;72.30
18323;BME280;9287;49.456;11.064;2023-02-04T11:32:37;99985.91;;;5.21;69.60
18323;BME280;9287;49.456;11.064;2023-02-04T11:35:20;99981.31;;;5.16;69.05
18323;BME280;9287;49.456;11.064;2023-02-04T11:37:48;99989.84;;;4.73;66.64
18323;BME280;9287;49.456;11.064;2023-02-04T11:40:28;99985.88;;;5.06;65.61
18323;BME280;9287;49.456;11.064;2023-02-04T11:42:58;99993.19;;;5.05;64.63
18323;BME280;9287;49.456;11.064;2023-02-04T11:45:29;99999.34;;;4.85;64.91
18323;BME280;9287;49.456;11.064;2023-02-04T11:47:59;100000.50;;;5.00;65.27
18323;BME280;9287;49.456;11.064;2023-02-04T11:50:31;99993.47;;;5.04;63.26
18323;BME280;9287;49.456;11.064;2023-02-04T11:53:00;99996.72;;;5.01;62.72
18323;BME280;9287;49.456;11.064;2023-02-04T11:55:29;99987.72;;;4.85;66.56
18323;BME280;9287;49.456;11.064;2023-02-04T11:57:57;99996.03;;;4.58;70.15
18323;BME280;9287;49.456;11.064;2023-02-04T12:00:28;99997.16;;;4.72;71.16
18323;BME280;9287;49.456;11.064;2023-02-04T12:02:58;99998.69;;;4.53;72.23
18323;BME280;9287;49.456;11.064;2023-02-04T12:05:38;99990.53;;;4.43;72.15
18323;BME280;9287;49.456;11.064;2023-02-04T12:08:12;99998.94;;;4.51;72.83
18323;BME280;9287;49.456;11.064;2023-02-04T12:10:47;99997.63;;;4.54;74.93
18323;BME280;9287;49.456;11.064;2023-02-04T12:13:17;99995.44;;;4.51;76.68
18323;BME280;9287;49.456;11.064;2023-02-04T12:15:54;100008.50;;;4.69;75.27
18323;BME280;9287;49.456;11.064;2023-02-04T12:18:22;100001.75;;;4.72;77.18
18323;BME280;9287;49.456;11.064;2023-02-04T12:20:51;100010.69;;;4.67;78.74
18323;BME280;9287;49.456;11.064;2023-02-04T12:23:19;100008.59;;;4.84;78.85
18323;BME280;9287;49.456;11.064;2023-02-04T12:25:47;100009.03;;;4.61;80.50
18323;BME280;9287;49.456;11.064;2023-02-04T12:28:15;100014.72;;;4.65;78.98
18323;BME280;9287;49.456;11.064;2023-02-04T12:30:43;100021.41;;;4.47;77.96
18323;BME280;9287;49.456;11.064;2023-02-04T12:33:11;100017.19;;;4.66;75.53
18323;BME280;9287;49.456;11.064;2023-02-04T12:35:40;100023.59;;;4.50;74.50
18323;BME280;9287;49.456;11.064;2023-02-04T12:38:10;100023.81;;;4.43;74.74
18323;BME280;9287;49.456;11.064;2023-02-04T12:40:38;100024.75;;;4.64;72.80
18323;BME280;9287;49.456;11.064;2023-02-04T12:43:05;100017.06;;;4.46;69.95
18323;BME280;9287;49.456;11.064;2023-02-04T12:45:33;100019.31;;;4.59;71.73
18323;BME280;9287;49.456;11.064;2023-02-04T12:48:01;100024.25;;;4.77;69.42
18323;BME280;9287;49.456;11.064;2023-02-04T12:50:29;100024.84;;;4.84;68.49
18323;BME280;9287;49.456;11.064;2023-02-04T12:52:58;100030.84;;;5.02;67.27
18323;BME280;9287;49.456;11.064;2023-02-04T12:55:27;100030.19;;;4.74;66.37
18323;BME280;9287;49.456;11.064;2023-02-04T12:57:55;100032.88;;;4.69;65.13
18323;BME280;9287;49.456;11.064;2023-02-04T13:00:23;100030.88;;;4.44;67.42
18323;BME280;9287;49.456;11.064;2023-02-04T13:02:52;100034.22;;;4.72;68.23
18323;BME280;9287;49.456;11.064;2023-02-04T13:05:21;100033.13;;;4.63;66.49
18323;BME280;9287;49.456;11.064;2023-02-04T13:07:49;100039.41;;;4.78;66.20
18323;BME280;9287;49.456;11.064;2023-02-04T13:10:16;100033.47;;;4.86;66.70